createdAt,value
2018-12-08T00:02:04.624Z,9.20
2018-12-08T00:04:36.691Z,9.20
2018-12-08T00:07:09.188Z,9.20
2018-12-08T00:09:43.296Z,9.20
2018-12-08T00:12:15.779Z,9.20
2018-12-08T00:14:45.668Z,9.20
2018-12-08T00:17:17.488Z,9.20
2018-12-08T00:19:51.558Z,9.20
2018-12-08T00:22:26.481Z,9.20
2018-12-08T00:24:56.727Z,9.10
2018-12-08T00:27:25.410Z,9.10
2018-12-08T00:29:54.379Z,8.90
2018-12-08T00:32:26.703Z,8.70
2018-12-08T00:35:00.873Z,8.50
2018-12-08T00:37:29.805Z,8.30
2018-12-08T00:39:58.577Z,8.20
2018-12-08T00:42:27.513Z,8.00
2018-12-08T00:44:56.401Z,7.90
2018-12-08T00:47:28.415Z,7.90
2018-12-08T00:49:57.149Z,7.80
2018-12-08T00:52:26.069Z,7.70
2018-12-08T00:54:55.934Z,7.70
2018-12-08T00:57:28.041Z,7.60
2018-12-08T01:00:02.275Z,7.60
2018-12-08T01:02:35.008Z,7.60
2018-12-08T01:05:10.487Z,7.50
2018-12-08T01:07:39.447Z,7.50
2018-12-08T01:10:12.051Z,7.50
2018-12-08T01:12:44.901Z,7.50
2018-12-08T01:15:17.850Z,7.50
2018-12-08T01:17:52.879Z,7.40
2018-12-08T01:20:28.856Z,7.40
2018-12-08T01:23:04.602Z,7.40
2018-12-08T01:25:41.741Z,7.30
2018-12-08T01:31:08.326Z,7.20
2018-12-08T01:33:46.034Z,7.10
2018-12-08T01:36:38.550Z,7.00
2018-12-08T01:39:29.065Z,6.90
2018-12-08T01:42:01.719Z,6.90
2018-12-08T01:44:36.620Z,6.80
2018-12-08T01:47:11.567Z,6.80
2018-12-08T01:49:42.748Z,6.70
2018-12-08T01:52:15.348Z,6.70
2018-12-08T01:54:51.038Z,6.70
2018-12-08T01:57:23.116Z,6.70
2018-12-08T02:00:00.875Z,6.60
2018-12-08T02:02:36.076Z,6.60
2018-12-08T02:05:14.088Z,6.60
2018-12-08T02:07:53.263Z,6.60
2018-12-08T02:10:28.385Z,6.60
2018-12-08T02:13:00.487Z,6.50
2018-12-08T02:15:36.852Z,6.50
2018-12-08T02:18:16.338Z,6.50
2018-12-08T02:20:57.503Z,6.30
2018-12-08T02:23:30.708Z,6.30
2018-12-08T02:26:01.297Z,6.20
2018-12-08T02:28:35.600Z,6.20
2018-12-08T02:31:09.508Z,6.10
2018-12-08T02:33:50.946Z,6.20
2018-12-08T02:36:26.727Z,6.20
2018-12-08T02:38:59.935Z,6.20
2018-12-08T02:41:31.296Z,6.20
2018-12-08T02:44:06.261Z,6.30
2018-12-08T02:46:40.034Z,6.30
2018-12-08T02:49:15.876Z,6.30
2018-12-08T02:51:48.639Z,6.30
2018-12-08T02:54:22.432Z,6.30
2018-12-08T02:56:57.181Z,6.30
2018-12-08T02:59:34.295Z,6.30
2018-12-08T03:02:09.588Z,6.30
2018-12-08T03:04:42.918Z,6.30
2018-12-08T03:07:20.933Z,6.30
2018-12-08T03:09:53.493Z,6.40
2018-12-08T03:12:24.227Z,6.40
2018-12-08T03:14:55.501Z,6.40
2018-12-08T03:17:34.391Z,6.50
2018-12-08T03:20:09.534Z,6.50
2018-12-08T03:22:44.481Z,6.50
2018-12-08T03:25:32.781Z,6.50
2018-12-08T03:28:11.867Z,6.60
2018-12-08T05:20:22.397Z,6.20
2018-12-08T08:35:20.865Z,6.10
2018-12-08T08:38:05.871Z,6.10
2018-12-08T08:46:53.727Z,5.70
2018-12-08T08:49:30.223Z,5.60
2018-12-08T08:52:07.106Z,5.50
2018-12-08T08:57:35.443Z,5.30
2018-12-08T09:03:13.941Z,5.10
2018-12-08T09:05:52.612Z,5.00
2018-12-08T09:08:27.471Z,4.90
2018-12-08T09:11:04.584Z,4.80
2018-12-08T09:13:51.787Z,4.80
2018-12-08T09:16:32.086Z,4.70
2018-12-08T09:19:09.967Z,4.70
2018-12-08T09:21:55.199Z,4.60
2018-12-08T09:24:29.652Z,4.50
2018-12-08T09:27:05.292Z,4.50
2018-12-08T09:29:45.199Z,4.50
2018-12-08T09:32:29.342Z,4.50
2018-12-08T09:35:03.526Z,4.40
2018-12-08T09:37:38.467Z,4.40
2018-12-08T09:40:09.680Z,4.40
2018-12-08T09:42:44.847Z,4.40
2018-12-08T09:45:24.057Z,4.40
2018-12-08T09:47:59.544Z,4.40
2018-12-08T09:50:34.326Z,4.50
2018-12-08T09:53:21.299Z,4.50
2018-12-08T09:55:55.529Z,4.60
2018-12-08T09:58:26.077Z,4.60
2018-12-08T10:00:58.781Z,4.60
2018-12-08T10:03:31.448Z,4.70
2018-12-08T10:06:00.392Z,4.70
2018-12-08T10:08:30.663Z,4.80
2018-12-08T10:11:02.593Z,4.80
2018-12-08T10:13:34.557Z,4.80
2018-12-08T10:16:05.071Z,4.80
2018-12-08T10:18:37.664Z,4.80
2018-12-08T10:21:10.535Z,4.90
2018-12-08T10:23:43.290Z,4.90
2018-12-08T10:26:15.945Z,4.90
2018-12-08T10:28:48.668Z,4.90
2018-12-08T10:31:17.360Z,5.00
2018-12-08T10:33:51.457Z,5.10
2018-12-08T10:36:20.403Z,5.10
2018-12-08T10:38:49.175Z,5.20
2018-12-08T10:41:23.403Z,5.30
2018-12-08T10:43:55.678Z,5.30
2018-12-08T10:46:27.696Z,5.40
2018-12-08T10:49:00.288Z,5.50
2018-12-08T10:51:37.935Z,5.60
2018-12-08T10:54:16.464Z,5.60
2018-12-08T10:56:49.649Z,5.70
2018-12-08T10:59:22.172Z,5.70
2018-12-08T11:02:01.280Z,5.70
2018-12-08T11:04:30.306Z,5.80
2018-12-08T11:06:59.153Z,5.80
2018-12-08T11:09:27.912Z,5.90
2018-12-08T11:11:56.763Z,5.90
2018-12-08T11:14:25.730Z,6.00
2018-12-08T11:16:58.205Z,6.00
2018-12-08T11:19:32.515Z,6.10
2018-12-08T11:22:04.737Z,6.10
2018-12-08T11:24:36.700Z,6.10
2018-12-08T11:27:09.931Z,6.20
2018-12-08T11:32:36.032Z,6.20
2018-12-08T11:35:09.133Z,6.30
2018-12-08T11:37:41.846Z,6.30
2018-12-08T11:40:18.292Z,6.30
2018-12-08T11:42:50.775Z,6.40
2018-12-08T11:45:24.228Z,6.40
2018-12-08T11:47:56.558Z,6.40
2018-12-08T11:50:30.132Z,6.40
2018-12-08T11:53:04.572Z,6.40
2018-12-08T11:55:40.087Z,6.50
2018-12-08T11:58:12.954Z,6.50
2018-12-08T12:00:45.967Z,6.50
2018-12-08T12:03:22.599Z,6.40
2018-12-08T12:06:15.767Z,6.40
2018-12-08T12:08:51.074Z,6.50
2018-12-08T12:11:21.912Z,6.50
2018-12-08T12:14:02.067Z,6.50
2018-12-08T12:16:37.194Z,6.50
2018-12-08T12:19:19.236Z,6.50
2018-12-08T12:22:04.623Z,6.50
2018-12-08T12:24:42.442Z,6.50
2018-12-08T12:27:24.548Z,6.50
2018-12-08T12:30:05.835Z,6.50
2018-12-08T12:35:32.852Z,6.50
2018-12-08T12:38:15.562Z,6.50
2018-12-08T12:41:04.697Z,6.50
2018-12-08T12:43:39.834Z,6.50
2018-12-08T12:46:16.927Z,6.60
2018-12-08T12:48:54.348Z,6.60
2018-12-08T12:51:36.895Z,6.60
2018-12-08T12:57:24.167Z,6.60
2018-12-08T13:00:19.293Z,6.50
2018-12-08T13:03:07.640Z,6.60
2018-12-08T13:05:46.034Z,6.60
2018-12-08T13:08:26.474Z,6.60
2018-12-08T13:11:09.045Z,6.60
2018-12-08T13:13:42.901Z,6.50
2018-12-08T13:16:18.431Z,6.60
2018-12-08T13:19:03.026Z,6.60
2018-12-08T13:21:45.509Z,6.60
2018-12-08T13:24:25.932Z,6.60
2018-12-08T13:26:57.123Z,6.60
2018-12-08T13:29:36.479Z,6.60
2018-12-08T13:32:12.664Z,6.60
2018-12-08T13:34:47.002Z,6.60
2018-12-08T13:37:21.544Z,6.60
2018-12-08T13:39:55.986Z,6.60
2018-12-08T13:42:32.144Z,6.60
2018-12-08T13:45:16.610Z,6.60
2018-12-08T13:48:00.521Z,6.60
2018-12-08T13:50:38.766Z,6.60
2018-12-08T13:53:42.670Z,6.60
2018-12-08T13:56:37.063Z,6.60
2018-12-08T13:59:20.747Z,6.70
2018-12-08T14:01:58.818Z,6.70
2018-12-08T14:04:40.300Z,6.70
2018-12-08T14:10:25.899Z,6.70
2018-12-08T14:13:16.561Z,6.80
2018-12-08T14:15:55.261Z,6.80
2018-12-08T14:24:23.900Z,6.80
2018-12-08T14:39:28.835Z,6.80
2018-12-08T14:48:19.127Z,6.80
2018-12-08T14:54:02.836Z,6.80
2018-12-08T15:19:00.395Z,7.10
2018-12-08T15:21:42.293Z,7.10
2018-12-08T15:28:30.883Z,7.10
2018-12-08T15:31:19.636Z,7.00
2018-12-08T15:47:41.408Z,7.00
2018-12-08T15:56:44.239Z,7.10
2018-12-08T16:02:39.431Z,7.10
2018-12-08T16:08:33.454Z,7.10
2018-12-08T16:11:22.734Z,7.10
2018-12-08T16:14:11.134Z,7.20
2018-12-08T16:17:05.880Z,7.20
2018-12-08T16:19:44.201Z,7.20
2018-12-08T16:25:14.449Z,7.20
2018-12-08T16:33:05.426Z,7.20
2018-12-08T16:35:55.713Z,7.20
2018-12-08T16:41:33.756Z,7.20
2018-12-08T16:44:19.250Z,7.10
2018-12-08T16:46:54.824Z,7.10
2018-12-08T16:49:34.666Z,7.10
2018-12-08T16:52:16.289Z,7.10
2018-12-08T16:54:53.363Z,7.10
2018-12-08T16:57:29.332Z,7.10
2018-12-08T17:00:07.328Z,7.10
2018-12-08T17:02:39.682Z,7.10
2018-12-08T17:05:14.432Z,7.20
2018-12-08T17:10:24.403Z,7.20
2018-12-08T17:12:59.411Z,7.20
2018-12-08T17:15:34.398Z,7.20
2018-12-08T17:18:18.199Z,7.20
2018-12-08T17:20:48.216Z,7.20
2018-12-08T17:23:23.916Z,7.20
2018-12-08T17:26:03.233Z,7.20
2018-12-08T17:28:37.986Z,7.10
2018-12-08T17:31:15.242Z,7.10
2018-12-08T17:34:03.709Z,7.10
2018-12-08T17:36:52.001Z,7.10
2018-12-08T18:01:27.890Z,7.20
2018-12-08T18:04:03.633Z,7.20
2018-12-08T18:09:25.956Z,7.20
2018-12-08T18:12:01.429Z,7.20
2018-12-08T18:14:48.678Z,7.20
2018-12-08T18:18:53.456Z,7.20
2018-12-08T18:24:21.811Z,7.30
2018-12-08T18:26:51.720Z,7.20
2018-12-08T18:29:20.303Z,7.30
2018-12-08T18:31:48.819Z,7.30
2018-12-08T18:34:17.411Z,7.30
2018-12-08T18:36:46.067Z,7.30
2018-12-08T18:42:11.311Z,7.30
2018-12-08T18:44:50.611Z,7.30
2018-12-08T18:47:34.950Z,7.20
2018-12-08T18:53:06.626Z,7.20
2018-12-08T18:55:45.715Z,7.20
2018-12-08T19:04:06.241Z,7.20
2018-12-08T19:09:46.715Z,7.20
2018-12-08T19:27:28.690Z,7.30
2018-12-08T20:25:30.555Z,7.10
2018-12-08T20:32:33.140Z,7.10
2018-12-08T21:16:45.381Z,7.20
2018-12-08T22:04:39.320Z,7.40
2018-12-08T23:05:57.712Z,7.60
2018-12-08T23:36:17.257Z,7.40
2018-12-08T23:52:19.367Z,7.30
